KFTK/FTK METAR and TAF weather

Enter ICAO airport designator
Station Type Date Time Source
KFTK METAR 2020/01/27 13:41 UTC NOAA

KFTK 271341Z AUTO 28003KT 10SM OVC065 02/02 A2994 RMK AO2 SLP146


Station Type Date Time Source
KFTK Decoded METAR 2020/01/27 13:41 UTC NOAA

Fort Knox, KY, United States (KFTK) 37-54N 085-58W 230M
Jan 27, 2020 - 08:41 AM EST / 2020.01.27 1341 UTC
Wind: from the W (280 degrees) at 3 MPH (3 KT):0
Visibility: 10 mile(s):0
Sky conditions: overcast
Temperature: 35 F (2 C)
Dew Point: 35 F (2 C)
Relative Humidity: 100%
Pressure (altimeter): 29.94 in. Hg (1013 hPa)
ob: KFTK 271341Z AUTO 28003KT 10SM OVC065 02/02 A2994 RMK AO2 SLP146
cycle: 13

Station Type Date Time Source
KFTK TAF 2020/01/27 11:44 UTC NOAA

TAF
AMD KFTK 271135Z 2711/2815 VRB06KT 9999 SCT010 BKN060 QNH2988INS
BECMG 2720/2721 30009KT 9999 BKN010 620208 QNH2997INS TX05/2721Z TN00/2809Z

Example: see airport list